Byers, Colorado
Current Conditions -  °F | °C
As of 11:47 AM on Saturday 25 Oct 2014 (Local Time) from KFTG Reporting Station
Clear Clear  
Wind Chill: 75°   Ceiling: Unl
Heat Index: 75°   Visibility: 50mi
Dew Point: 23°   Wind: 9mph
Humidity: 14%   Direction: 100°E
Pressure: 30.23"   Gusts: 17mph
Location:  39.71°N, 104.23°W
Report Text: KFTG 251747Z 10008G15KT 50SM SKC 24/M05 A3023
Loading
Personal Weather Stations






























Interactive Weather Map
Tropical Storm Tracking
New forecast layout! Learn more

10-Day Weather Forecast

Advertisements
Track Severe Weather on mobile